sensor_id;sensor_type;location;lat;lon;timestamp;pressure;altitude;pressure_sealevel;temperature;humidity
10510;BME280;5303;53.266;10.410;2023-08-21T00:01:55;102057.50;;;18.92;100.00
10510;BME280;5303;53.266;10.410;2023-08-21T00:04:20;102057.47;;;18.94;100.00
10510;BME280;5303;53.266;10.410;2023-08-21T00:06:45;102058.53;;;18.85;100.00
10510;BME280;5303;53.266;10.410;2023-08-21T00:09:11;102056.84;;;18.78;100.00
10510;BME280;5303;53.266;10.410;2023-08-21T00:11:36;102056.91;;;18.75;100.00
10510;BME280;5303;53.266;10.410;2023-08-21T00:14:01;102060.47;;;18.76;100.00
10510;BME280;5303;53.266;10.410;2023-08-21T00:16:27;102060.50;;;18.74;100.00
10510;BME280;5303;53.266;10.410;2023-08-21T00:18:53;102058.78;;;18.70;100.00
10510;BME280;5303;53.266;10.410;2023-08-21T00:21:19;102068.56;;;18.71;100.00
10510;BME280;5303;53.266;10.410;2023-08-21T00:23:44;102067.69;;;18.69;100.00
10510;BME280;5303;53.266;10.410;2023-08-21T00:26:10;102064.13;;;18.70;100.00
10510;BME280;5303;53.266;10.410;2023-08-21T00:28:35;102073.09;;;18.66;100.00
10510;BME280;5303;53.266;10.410;2023-08-21T00:31:04;102071.38;;;18.59;100.00
10510;BME280;5303;53.266;10.410;2023-08-21T00:33:33;102062.59;;;18.54;100.00
10510;BME280;5303;53.266;10.410;2023-08-21T00:35:58;102068.03;;;18.46;100.00
10510;BME280;5303;53.266;10.410;2023-08-21T00:38:24;102067.25;;;18.41;100.00
10510;BME280;5303;53.266;10.410;2023-08-21T00:40:50;102060.16;;;18.37;100.00
10510;BME280;5303;53.266;10.410;2023-08-21T00:43:16;102062.00;;;18.33;100.00
10510;BME280;5303;53.266;10.410;2023-08-21T00:45:43;102070.06;;;18.32;100.00
10510;BME280;5303;53.266;10.410;2023-08-21T00:48:09;102067.50;;;18.24;100.00
10510;BME280;5303;53.266;10.410;2023-08-21T00:50:36;102063.09;;;18.22;100.00
10510;BME280;5303;53.266;10.410;2023-08-21T00:53:02;102066.63;;;18.22;100.00
10510;BME280;5303;53.266;10.410;2023-08-21T00:55:29;102064.91;;;18.20;100.00
10510;BME280;5303;53.266;10.410;2023-08-21T00:57:54;102057.78;;;18.17;100.00
10510;BME280;5303;53.266;10.410;2023-08-21T01:00:20;102051.66;;;18.12;100.00
10510;BME280;5303;53.266;10.410;2023-08-21T01:02:47;102055.19;;;18.12;100.00
10510;BME280;5303;53.266;10.410;2023-08-21T01:05:12;102060.47;;;18.17;100.00
10510;BME280;5303;53.266;10.410;2023-08-21T01:07:45;102054.19;;;18.21;100.00
10510;BME280;5303;53.266;10.410;2023-08-21T01:10:22;102059.47;;;18.24;100.00
10510;BME280;5303;53.266;10.410;2023-08-21T01:13:01;102055.06;;;18.22;100.00
10510;BME280;5303;53.266;10.410;2023-08-21T01:15:31;102054.16;;;18.23;100.00
10510;BME280;5303;53.266;10.410;2023-08-21T01:17:57;102049.81;;;18.16;100.00
10510;BME280;5303;53.266;10.410;2023-08-21T01:20:23;102049.03;;;18.07;100.00
10510;BME280;5303;53.266;10.410;2023-08-21T01:22:49;102044.66;;;18.02;100.00
10510;BME280;5303;53.266;10.410;2023-08-21T01:25:15;102054.50;;;18.00;100.00
10510;BME280;5303;53.266;10.410;2023-08-21T01:27:48;102058.09;;;17.96;100.00
10510;BME280;5303;53.266;10.410;2023-08-21T01:30:16;102046.63;;;17.89;100.00
10510;BME280;5303;53.266;10.410;2023-08-21T01:33:06;102049.34;;;17.84;100.00
10510;BME280;5303;53.266;10.410;2023-08-21T01:35:34;102047.63;;;17.80;100.00
10510;BME280;5303;53.266;10.410;2023-08-21T01:38:01;102047.72;;;17.74;100.00
10510;BME280;5303;53.266;10.410;2023-08-21T01:40:27;102046.00;;;17.70;100.00
10510;BME280;5303;53.266;10.410;2023-08-21T01:42:53;102055.75;;;17.73;100.00
10510;BME280;5303;53.266;10.410;2023-08-21T01:45:19;102058.38;;;17.74;100.00
10510;BME280;5303;53.266;10.410;2023-08-21T01:47:44;102064.59;;;17.75;100.00
10510;BME280;5303;53.266;10.410;2023-08-21T01:50:09;102061.97;;;17.73;100.00
10510;BME280;5303;53.266;10.410;2023-08-21T01:52:35;102068.25;;;17.69;100.00
10510;BME280;5303;53.266;10.410;2023-08-21T01:55:00;102067.34;;;17.70;100.00
10510;BME280;5303;53.266;10.410;2023-08-21T01:57:25;102059.31;;;17.69;100.00
10510;BME280;5303;53.266;10.410;2023-08-21T01:59:50;102070.03;;;17.64;100.00
10510;BME280;5303;53.266;10.410;2023-08-21T02:02:16;102062.03;;;17.64;100.00
10510;BME280;5303;53.266;10.410;2023-08-21T02:04:41;102063.81;;;17.65;100.00
10510;BME280;5303;53.266;10.410;2023-08-21T02:07:06;102072.66;;;17.67;100.00
10510;BME280;5303;53.266;10.410;2023-08-21T02:09:32;102060.22;;;17.66;100.00
10510;BME280;5303;53.266;10.410;2023-08-21T02:11:58;102070.03;;;17.64;100.00
10510;BME280;5303;53.266;10.410;2023-08-21T02:14:23;102056.78;;;17.58;100.00
10510;BME280;5303;53.266;10.410;2023-08-21T02:16:48;102063.03;;;17.55;100.00
10510;BME280;5303;53.266;10.410;2023-08-21T02:19:14;102062.25;;;17.49;100.00
10510;BME280;5303;53.266;10.410;2023-08-21T02:21:39;102059.63;;;17.43;100.00
10510;BME280;5303;53.266;10.410;2023-08-21T02:24:04;102064.16;;;17.35;100.00
10510;BME280;5303;53.266;10.410;2023-08-21T02:26:29;102058.91;;;17.28;100.00
10510;BME280;5303;53.266;10.410;2023-08-21T02:28:55;102058.88;;;17.32;100.00
10510;BME280;5303;53.266;10.410;2023-08-21T02:31:20;102060.69;;;17.30;100.00
10510;BME280;5303;53.266;10.410;2023-08-21T02:33:45;102060.69;;;17.30;100.00
10510;BME280;5303;53.266;10.410;2023-08-21T02:36:11;102063.41;;;17.22;100.00
10510;BME280;5303;53.266;10.410;2023-08-21T02:38:36;102066.13;;;17.19;100.00
10510;BME280;5303;53.266;10.410;2023-08-21T02:41:01;102062.59;;;17.15;100.00
10510;BME280;5303;53.266;10.410;2023-08-21T02:43:26;102064.44;;;17.10;100.00
10510;BME280;5303;53.266;10.410;2023-08-21T02:45:52;102059.13;;;17.07;100.00
10510;BME280;5303;53.266;10.410;2023-08-21T02:48:17;102066.25;;;17.05;100.00
10510;BME280;5303;53.266;10.410;2023-08-21T02:50:43;102061.84;;;17.03;100.00
10510;BME280;5303;53.266;10.410;2023-08-21T02:53:08;102066.31;;;16.99;100.00
10510;BME280;5303;53.266;10.410;2023-08-21T02:55:33;102062.72;;;17.03;100.00
10510;BME280;5303;53.266;10.410;2023-08-21T02:57:59;102067.13;;;17.06;100.00
10510;BME280;5303;53.266;10.410;2023-08-21T03:00:24;102075.16;;;17.04;100.00
10510;BME280;5303;53.266;10.410;2023-08-21T03:02:50;102077.88;;;16.99;100.00
10510;BME280;5303;53.266;10.410;2023-08-21T03:05:15;102077.03;;;16.93;100.00
10510;BME280;5303;53.266;10.410;2023-08-21T03:07:40;102079.78;;;16.87;100.00
10510;BME280;5303;53.266;10.410;2023-08-21T03:10:06;102083.38;;;16.80;100.00
10510;BME280;5303;53.266;10.410;2023-08-21T03:12:32;102084.28;;;16.79;100.00
10510;BME280;5303;53.266;10.410;2023-08-21T03:14:57;102083.38;;;16.80;100.00
10510;BME280;5303;53.266;10.410;2023-08-21T03:17:23;102085.16;;;16.79;100.00
10510;BME280;5303;53.266;10.410;2023-08-21T03:19:49;102085.16;;;16.79;100.00
10510;BME280;5303;53.266;10.410;2023-08-21T03:22:14;102087.84;;;16.75;100.00
10510;BME280;5303;53.266;10.410;2023-08-21T03:24:40;102090.53;;;16.76;100.00
10510;BME280;5303;53.266;10.410;2023-08-21T03:27:05;102100.31;;;16.73;100.00
10510;BME280;5303;53.266;10.410;2023-08-21T03:29:30;102093.25;;;16.68;100.00
10510;BME280;5303;53.266;10.410;2023-08-21T03:31:57;102095.88;;;16.72;100.00
10510;BME280;5303;53.266;10.410;2023-08-21T03:34:23;102093.19;;;16.72;100.00
10510;BME280;5303;53.266;10.410;2023-08-21T03:36:48;102094.97;;;16.73;100.00
10510;BME280;5303;53.266;10.410;2023-08-21T03:39:14;102090.53;;;16.72;100.00
10510;BME280;5303;53.266;10.410;2023-08-21T03:41:39;102090.53;;;16.72;100.00
10510;BME280;5303;53.266;10.410;2023-08-21T03:44:04;102089.69;;;16.69;100.00
10510;BME280;5303;53.266;10.410;2023-08-21T03:46:29;102084.34;;;16.69;100.00
10510;BME280;5303;53.266;10.410;2023-08-21T03:48:55;102081.69;;;16.69;100.00
10510;BME280;5303;53.266;10.410;2023-08-21T03:51:20;102084.38;;;16.68;100.00
10510;BME280;5303;53.266;10.410;2023-08-21T03:53:45;102082.59;;;16.62;100.00
10510;BME280;5303;53.266;10.410;2023-08-21T03:56:11;102088.81;;;16.60;100.00
10510;BME280;5303;53.266;10.410;2023-08-21T03:58:36;102087.06;;;16.59;100.00
10510;BME280;5303;53.266;10.410;2023-08-21T04:01:01;102096.81;;;16.61;100.00
10510;BME280;5303;53.266;10.410;2023-08-21T04:03:27;102096.78;;;16.64;100.00
10510;BME280;5303;53.266;10.410;2023-08-21T04:05:55;102096.78;;;16.64;100.00
10510;BME280;5303;53.266;10.410;2023-08-21T04:08:22;102095.03;;;16.60;100.00
10510;BME280;5303;53.266;10.410;2023-08-21T04:10:47;102097.69;;;16.60;100.00
10510;BME280;5303;53.266;10.410;2023-08-21T04:13:13;102102.16;;;16.60;100.00
10510;BME280;5303;53.266;10.410;2023-08-21T04:15:38;102102.13;;;16.61;100.00
10510;BME280;5303;53.266;10.410;2023-08-21T04:18:04;102106.53;;;16.64;100.00
10510;BME280;5303;53.266;10.410;2023-08-21T04:20:30;102103.91;;;16.62;100.00
10510;BME280;5303;53.266;10.410;2023-08-21T04:22:55;102107.47;;;16.61;100.00
10510;BME280;5303;53.266;10.410;2023-08-21T04:25:21;102102.13;;;16.61;100.00
10510;BME280;5303;53.266;10.410;2023-08-21T04:27:47;102105.66;;;16.63;100.00
10510;BME280;5303;53.266;10.410;2023-08-21T04:30:13;102106.56;;;16.65;100.00
10510;BME280;5303;53.266;10.410;2023-08-21T04:32:38;102105.66;;;16.65;100.00
10510;BME280;5303;53.266;10.410;2023-08-21T04:35:04;102108.34;;;16.68;100.00
10510;BME280;5303;53.266;10.410;2023-08-21T04:37:30;102111.00;;;16.69;100.00
10510;BME280;5303;53.266;10.410;2023-08-21T04:39:56;102113.63;;;16.71;100.00
10510;BME280;5303;53.266;10.410;2023-08-21T04:42:21;102117.19;;;16.72;100.00
10510;BME280;5303;53.266;10.410;2023-08-21T04:44:47;102099.41;;;16.72;100.00
10510;BME280;5303;53.266;10.410;2023-08-21T04:47:26;102117.16;;;16.75;100.00
10510;BME280;5303;53.266;10.410;2023-08-21T04:49:52;102118.03;;;16.75;100.00
10510;BME280;5303;53.266;10.410;2023-08-21T04:52:19;102116.28;;;16.76;100.00
10510;BME280;5303;53.266;10.410;2023-08-21T04:54:44;102110.03;;;16.78;100.00
10510;BME280;5303;53.266;10.410;2023-08-21T04:57:09;102112.66;;;16.81;100.00
10510;BME280;5303;53.266;10.410;2023-08-21T04:59:35;102121.53;;;16.85;100.00
10510;BME280;5303;53.266;10.410;2023-08-21T05:02:01;102121.50;;;16.88;100.00
10510;BME280;5303;53.266;10.410;2023-08-21T05:04:26;102117.94;;;16.89;100.00
10510;BME280;5303;53.266;10.410;2023-08-21T05:06:51;102123.22;;;16.93;100.00
10510;BME280;5303;53.266;10.410;2023-08-21T05:09:17;102125.88;;;16.96;100.00
10510;BME280;5303;53.266;10.410;2023-08-21T05:11:42;102126.72;;;17.02;100.00
10510;BME280;5303;53.266;10.410;2023-08-21T05:14:07;102121.34;;;17.06;100.00
10510;BME280;5303;53.266;10.410;2023-08-21T05:16:33;102132.81;;;17.14;100.00
10510;BME280;5303;53.266;10.410;2023-08-21T05:18:58;102131.88;;;17.21;100.00
10510;BME280;5303;53.266;10.410;2023-08-21T05:21:23;102124.69;;;17.26;100.00
10510;BME280;5303;53.266;10.410;2023-08-21T05:23:49;102129.13;;;17.29;100.00
10510;BME280;5303;53.266;10.410;2023-08-21T05:26:14;102136.16;;;17.38;100.00
10510;BME280;5303;53.266;10.410;2023-08-21T05:28:39;102126.28;;;17.46;100.00
10510;BME280;5303;53.266;10.410;2023-08-21T05:31:05;102128.84;;;17.55;100.00
10510;BME280;5303;53.266;10.410;2023-08-21T05:33:30;102118.94;;;17.66;100.00
10510;BME280;5303;53.266;10.410;2023-08-21T05:35:56;102122.50;;;17.65;100.00
10510;BME280;5303;53.266;10.410;2023-08-21T05:38:22;102119.81;;;17.71;100.00
10510;BME280;5303;53.266;10.410;2023-08-21T05:40:48;102121.47;;;17.81;100.00
10510;BME280;5303;53.266;10.410;2023-08-21T05:43:13;102116.06;;;17.86;100.00
10510;BME280;5303;53.266;10.410;2023-08-21T05:45:38;102107.97;;;17.94;100.00
10510;BME280;5303;53.266;10.410;2023-08-21T05:48:04;102117.56;;;18.07;100.00
10510;BME280;5303;53.266;10.410;2023-08-21T05:50:29;102114.84;;;18.13;100.00
10510;BME280;5303;53.266;10.410;2023-08-21T05:52:54;102110.28;;;18.21;100.00
10510;BME280;5303;53.266;10.410;2023-08-21T05:55:20;102110.97;;;18.35;100.00
10510;BME280;5303;53.266;10.410;2023-08-21T05:57:45;102110.03;;;18.39;100.00
10510;BME280;5303;53.266;10.410;2023-08-21T06:00:12;102114.41;;;18.43;100.00
10510;BME280;5303;53.266;10.410;2023-08-21T06:02:37;102108.16;;;18.45;100.00
10510;BME280;5303;53.266;10.410;2023-08-21T06:05:03;102110.88;;;18.41;100.00
10510;BME280;5303;53.266;10.410;2023-08-21T06:07:28;102113.47;;;18.46;100.00
10510;BME280;5303;53.266;10.410;2023-08-21T06:09:54;102105.41;;;18.51;100.00
10510;BME280;5303;53.266;10.410;2023-08-21T06:12:19;102107.94;;;18.60;100.00
10510;BME280;5303;53.266;10.410;2023-08-21T06:14:44;102109.63;;;18.67;100.00
10510;BME280;5303;53.266;10.410;2023-08-21T06:17:09;102111.31;;;18.73;100.00
10510;BME280;5303;53.266;10.410;2023-08-21T06:19:35;102108.50;;;18.82;100.00
10510;BME280;5303;53.266;10.410;2023-08-21T06:22:01;102101.22;;;18.88;100.00
10510;BME280;5303;53.266;10.410;2023-08-21T06:24:26;102112.81;;;18.89;100.00
10510;BME280;5303;53.266;10.410;2023-08-21T06:26:52;102106.66;;;18.85;100.00
10510;BME280;5303;53.266;10.410;2023-08-21T06:29:20;102106.66;;;18.85;100.00
10510;BME280;5303;53.266;10.410;2023-08-21T06:31:46;102113.66;;;18.92;100.00
10510;BME280;5303;53.266;10.410;2023-08-21T06:34:11;102107.47;;;18.90;100.00
10510;BME280;5303;53.266;10.410;2023-08-21T06:36:36;102108.22;;;18.97;100.00
10510;BME280;5303;53.266;10.410;2023-08-21T06:39:01;102107.28;;;19.01;100.00
10510;BME280;5303;53.266;10.410;2023-08-21T06:41:27;102108.84;;;19.13;100.00
10510;BME280;5303;53.266;10.410;2023-08-21T06:43:53;102105.31;;;19.12;100.00
10510;BME280;5303;53.266;10.410;2023-08-21T06:46:18;102113.28;;;19.14;100.00
10510;BME280;5303;53.266;10.410;2023-08-21T06:48:43;102113.13;;;19.23;100.00
10510;BME280;5303;53.266;10.410;2023-08-21T06:51:09;102111.13;;;19.34;100.00
10510;BME280;5303;53.266;10.410;2023-08-21T06:53:35;102105.69;;;19.39;100.00
10510;BME280;5303;53.266;10.410;2023-08-21T06:56:00;102111.88;;;19.41;100.00
10510;BME280;5303;53.266;10.410;2023-08-21T06:58:25;102112.91;;;19.35;100.00
10510;BME280;5303;53.266;10.410;2023-08-21T07:00:53;102121.69;;;19.40;100.00
10510;BME280;5303;53.266;10.410;2023-08-21T07:03:18;102124.44;;;19.37;100.00
10510;BME280;5303;53.266;10.410;2023-08-21T07:05:46;102118.00;;;19.47;100.00
10510;BME280;5303;53.266;10.410;2023-08-21T07:08:13;102128.66;;;19.52;100.00
10510;BME280;5303;53.266;10.410;2023-08-21T07:10:38;102129.50;;;19.55;100.00
10510;BME280;5303;53.266;10.410;2023-08-21T07:13:03;102128.50;;;19.60;100.00
10510;BME280;5303;53.266;10.410;2023-08-21T07:15:29;102124.81;;;19.67;100.00
10510;BME280;5303;53.266;10.410;2023-08-21T07:17:55;102118.47;;;19.71;100.00
10510;BME280;5303;53.266;10.410;2023-08-21T07:20:21;102119.44;;;19.67;100.00
10510;BME280;5303;53.266;10.410;2023-08-21T07:22:46;102117.69;;;19.66;100.00
10510;BME280;5303;53.266;10.410;2023-08-21T07:25:11;102124.84;;;19.65;100.00
10510;BME280;5303;53.266;10.410;2023-08-21T07:27:37;102124.81;;;19.67;100.00
10510;BME280;5303;53.266;10.410;2023-08-21T07:30:02;102127.34;;;19.74;100.00
10510;BME280;5303;53.266;10.410;2023-08-21T07:32:28;102124.34;;;19.90;100.00
10510;BME280;5303;53.266;10.410;2023-08-21T07:34:53;102135.88;;;19.92;100.00
10510;BME280;5303;53.266;10.410;2023-08-21T07:37:19;102126.00;;;19.95;100.00
10510;BME280;5303;53.266;10.410;2023-08-21T07:39:45;102135.75;;;19.99;100.00
10510;BME280;5303;53.266;10.410;2023-08-21T07:45:32;102131.09;;;20.07;100.00
10510;BME280;5303;53.266;10.410;2023-08-21T07:47:57;102132.75;;;20.14;100.00
10510;BME280;5303;53.266;10.410;2023-08-21T07:50:23;102139.00;;;20.15;100.00
10510;BME280;5303;53.266;10.410;2023-08-21T07:52:48;102127.19;;;20.24;100.00
10510;BME280;5303;53.266;10.410;2023-08-21T07:55:13;102125.34;;;20.26;100.00
10510;BME280;5303;53.266;10.410;2023-08-21T07:57:38;102133.31;;;20.29;100.00
10510;BME280;5303;53.266;10.410;2023-08-21T08:00:04;102124.25;;;20.34;100.00
10510;BME280;5303;53.266;10.410;2023-08-21T08:02:34;102127.91;;;20.30;100.00
10510;BME280;5303;53.266;10.410;2023-08-21T08:05:00;102133.00;;;20.44;100.00
10510;BME280;5303;53.266;10.410;2023-08-21T08:07:25;102129.25;;;20.51;100.00
10510;BME280;5303;53.266;10.410;2023-08-21T08:09:51;102127.09;;;20.67;100.00
10510;BME280;5303;53.266;10.410;2023-08-21T08:12:16;102125.34;;;20.66;100.00
10510;BME280;5303;53.266;10.410;2023-08-21T08:14:41;102125.09;;;20.77;100.00
10510;BME280;5303;53.266;10.410;2023-08-21T08:17:07;102116.88;;;20.83;100.00
10510;BME280;5303;53.266;10.410;2023-08-21T08:19:32;102116.94;;;20.80;100.00
10510;BME280;5303;53.266;10.410;2023-08-21T08:21:57;102121.41;;;20.81;100.00
10510;BME280;5303;53.266;10.410;2023-08-21T08:24:22;102109.81;;;20.79;100.00
10510;BME280;5303;53.266;10.410;2023-08-21T08:26:48;102120.41;;;20.85;100.00
10510;BME280;5303;53.266;10.410;2023-08-21T08:29:13;102116.50;;;20.98;100.00
10510;BME280;5303;53.266;10.410;2023-08-21T08:31:39;102120.72;;;21.08;100.00
10510;BME280;5303;53.266;10.410;2023-08-21T08:34:04;102114.31;;;21.12;100.00
10510;BME280;5303;53.266;10.410;2023-08-21T08:36:29;102110.56;;;21.19;100.00
10510;BME280;5303;53.266;10.410;2023-08-21T08:38:55;102120.34;;;21.22;100.00
10510;BME280;5303;53.266;10.410;2023-08-21T08:41:44;102120.44;;;21.19;100.00
10510;BME280;5303;53.266;10.410;2023-08-21T08:44:14;102119.50;;;21.20;100.00
10510;BME280;5303;53.266;10.410;2023-08-21T08:46:41;102123.31;;;21.11;100.00
10510;BME280;5303;53.266;10.410;2023-08-21T08:49:06;102117.69;;;21.20;100.00
10510;BME280;5303;53.266;10.410;2023-08-21T08:51:34;102113.72;;;21.37;100.00
10510;BME280;5303;53.266;10.410;2023-08-21T08:54:03;102096.56;;;21.42;100.00
10510;BME280;5303;53.266;10.410;2023-08-21T08:56:29;102101.88;;;21.44;100.00
10510;BME280;5303;53.266;10.410;2023-08-21T08:58:54;102095.50;;;21.48;100.00
10510;BME280;5303;53.266;10.410;2023-08-21T09:01:19;102107.81;;;21.55;100.00
10510;BME280;5303;53.266;10.410;2023-08-21T09:03:44;102101.56;;;21.56;100.00
10510;BME280;5303;53.266;10.410;2023-08-21T09:06:10;102104.16;;;21.59;100.00
10510;BME280;5303;53.266;10.410;2023-08-21T09:08:35;102092.59;;;21.55;100.00
10510;BME280;5303;53.266;10.410;2023-08-21T09:11:02;102094.91;;;21.69;100.00
10510;BME280;5303;53.266;10.410;2023-08-21T09:13:28;102096.28;;;21.82;100.00
10510;BME280;5303;53.266;10.410;2023-08-21T09:15:55;102093.75;;;21.78;100.00
10510;BME280;5303;53.266;10.410;2023-08-21T09:18:21;102096.56;;;21.73;100.00
10510;BME280;5303;53.266;10.410;2023-08-21T09:20:46;102093.75;;;21.78;100.00
10510;BME280;5303;53.266;10.410;2023-08-21T09:23:14;102092.81;;;21.79;100.00
10510;BME280;5303;53.266;10.410;2023-08-21T09:25:40;102092.41;;;21.93;100.00
10510;BME280;5303;53.266;10.410;2023-08-21T09:28:07;102083.09;;;22.04;100.00
10510;BME280;5303;53.266;10.410;2023-08-21T09:33:11;102085.72;;;22.06;100.00
10510;BME280;5303;53.266;10.410;2023-08-21T09:35:36;102092.81;;;22.10;100.00
10510;BME280;5303;53.266;10.410;2023-08-21T09:38:01;102084.66;;;22.13;100.00
10510;BME280;5303;53.266;10.410;2023-08-21T09:40:27;102083.81;;;22.11;100.00
10510;BME280;5303;53.266;10.410;2023-08-21T09:42:53;102082.91;;;22.12;100.00
10510;BME280;5303;53.266;10.410;2023-08-21T09:45:26;102089.00;;;22.17;100.00
10510;BME280;5303;53.266;10.410;2023-08-21T09:47:52;102083.94;;;22.06;100.00
10510;BME280;5303;53.266;10.410;2023-08-21T09:50:18;102084.75;;;22.10;100.00
10510;BME280;5303;53.266;10.410;2023-08-21T09:52:44;102081.38;;;22.02;100.00
10510;BME280;5303;53.266;10.410;2023-08-21T09:55:10;102072.91;;;22.16;100.00
10510;BME280;5303;53.266;10.410;2023-08-21T09:57:36;102075.97;;;22.33;100.00
10510;BME280;5303;53.266;10.410;2023-08-21T10:00:02;102078.50;;;22.37;100.00
10510;BME280;5303;53.266;10.410;2023-08-21T10:02:43;102076.44;;;22.46;100.00
10510;BME280;5303;53.266;10.410;2023-08-21T10:05:13;102073.47;;;22.55;100.00
10510;BME280;5303;53.266;10.410;2023-08-21T10:07:40;102076.66;;;22.66;100.00
10510;BME280;5303;53.266;10.410;2023-08-21T10:10:07;102082.78;;;22.71;100.00
10510;BME280;5303;53.266;10.410;2023-08-21T10:12:33;102078.41;;;22.68;100.00
10510;BME280;5303;53.266;10.410;2023-08-21T10:14:58;102077.59;;;22.65;100.00
10510;BME280;5303;53.266;10.410;2023-08-21T10:17:24;102080.19;;;22.68;100.00
10510;BME280;5303;53.266;10.410;2023-08-21T10:19:52;102072.44;;;22.59;100.00
10510;BME280;5303;53.266;10.410;2023-08-21T10:22:38;102079.06;;;22.75;100.00
10510;BME280;5303;53.266;10.410;2023-08-21T10:25:04;102063.72;;;22.79;100.00
10510;BME280;5303;53.266;10.410;2023-08-21T10:27:38;102069.66;;;22.88;100.00
10510;BME280;5303;53.266;10.410;2023-08-21T10:30:15;102075.72;;;22.95;100.00
10510;BME280;5303;53.266;10.410;2023-08-21T10:32:45;102063.00;;;23.00;100.00
10510;BME280;5303;53.266;10.410;2023-08-21T10:35:14;102072.97;;;22.96;96.66
10510;BME280;5303;53.266;10.410;2023-08-21T10:40:32;102070.91;;;23.05;95.27
10510;BME280;5303;53.266;10.410;2023-08-21T10:42:58;102073.78;;;22.98;94.14
10510;BME280;5303;53.266;10.410;2023-08-21T10:45:24;102068.16;;;23.06;98.90
10510;BME280;5303;53.266;10.410;2023-08-21T10:47:49;102072.78;;;23.03;100.00
10510;BME280;5303;53.266;10.410;2023-08-21T10:50:15;102069.16;;;23.04;100.00
10510;BME280;5303;53.266;10.410;2023-08-21T10:52:42;102070.56;;;23.14;96.29
10510;BME280;5303;53.266;10.410;2023-08-21T10:55:11;102082.16;;;23.16;98.05
10510;BME280;5303;53.266;10.410;2023-08-21T10:57:37;102085.22;;;23.05;98.98
10510;BME280;5303;53.266;10.410;2023-08-21T11:00:08;102081.78;;;23.02;100.00
10510;BME280;5303;53.266;10.410;2023-08-21T11:02:49;102070.13;;;23.01;100.00
10510;BME280;5303;53.266;10.410;2023-08-21T11:05:15;102079.47;;;23.16;97.96
10510;BME280;5303;53.266;10.410;2023-08-21T11:07:44;102070.94;;;23.30;98.06
10510;BME280;5303;53.266;10.410;2023-08-21T11:10:15;102070.94;;;23.28;93.56
10510;BME280;5303;53.266;10.410;2023-08-21T11:15:17;102069.06;;;23.32;94.34
10510;BME280;5303;53.266;10.410;2023-08-21T11:18:00;102079.44;;;23.42;89.35
10510;BME280;5303;53.266;10.410;2023-08-21T11:23:07;102061.78;;;23.59;84.73
10510;BME280;5303;53.266;10.410;2023-08-21T11:25:39;102068.50;;;23.72;85.06
10510;BME280;5303;53.266;10.410;2023-08-21T11:28:05;102071.28;;;23.69;89.38
10510;BME280;5303;53.266;10.410;2023-08-21T11:30:31;102072.00;;;23.74;88.26
10510;BME280;5303;53.266;10.410;2023-08-21T11:33:12;102067.06;;;23.85;87.36
10510;BME280;5303;53.266;10.410;2023-08-21T11:35:39;102071.97;;;23.97;87.23
10510;BME280;5303;53.266;10.410;2023-08-21T11:38:05;102074.81;;;23.94;94.57
10510;BME280;5303;53.266;10.410;2023-08-21T11:40:31;102072.22;;;24.14;85.37
10510;BME280;5303;53.266;10.410;2023-08-21T11:43:03;102071.94;;;24.21;75.03
10510;BME280;5303;53.266;10.410;2023-08-21T11:45:30;102071.44;;;24.11;78.22
10510;BME280;5303;53.266;10.410;2023-08-21T11:47:56;102076.94;;;24.08;72.57
10510;BME280;5303;53.266;10.410;2023-08-21T11:50:22;102072.44;;;24.08;74.62
10510;BME280;5303;53.266;10.410;2023-08-21T11:52:47;102070.19;;;24.20;79.91
10510;BME280;5303;53.266;10.410;2023-08-21T11:55:17;102067.44;;;24.21;80.09
10510;BME280;5303;53.266;10.410;2023-08-21T11:57:49;102066.44;;;24.24;78.19
10510;BME280;5303;53.266;10.410;2023-08-21T12:00:15;102076.78;;;24.36;82.36
10510;BME280;5303;53.266;10.410;2023-08-21T12:03:02;102069.81;;;24.29;91.75
10510;BME280;5303;53.266;10.410;2023-08-21T12:05:29;102068.47;;;23.95;95.33
10510;BME280;5303;53.266;10.410;2023-08-21T12:07:54;102061.78;;;24.05;92.55
10510;BME280;5303;53.266;10.410;2023-08-21T12:12:49;102068.44;;;24.19;90.52
10510;BME280;5303;53.266;10.410;2023-08-21T12:15:15;102076.34;;;24.01;91.88
10510;BME280;5303;53.266;10.410;2023-08-21T12:17:40;102070.09;;;23.99;94.17
10510;BME280;5303;53.266;10.410;2023-08-21T12:20:05;102067.19;;;24.05;95.04
10510;BME280;5303;53.266;10.410;2023-08-21T12:22:36;102061.91;;;24.02;90.89
10510;BME280;5303;53.266;10.410;2023-08-21T12:25:01;102058.34;;;24.02;94.18
10510;BME280;5303;53.266;10.410;2023-08-21T12:27:26;102062.00;;;23.99;95.59
10510;BME280;5303;53.266;10.410;2023-08-21T12:29:51;102068.41;;;23.97;90.31
10510;BME280;5303;53.266;10.410;2023-08-21T12:32:17;102060.31;;;23.97;91.69
10510;BME280;5303;53.266;10.410;2023-08-21T12:34:42;102061.78;;;24.05;85.76
10510;BME280;5303;53.266;10.410;2023-08-21T12:37:07;102060.34;;;24.19;87.57
10510;BME280;5303;53.266;10.410;2023-08-21T12:39:33;102066.31;;;24.27;82.08
10510;BME280;5303;53.266;10.410;2023-08-21T12:41:58;102057.66;;;24.19;80.98
10510;BME280;5303;53.266;10.410;2023-08-21T12:44:23;102062.94;;;24.22;82.05
10510;BME280;5303;53.266;10.410;2023-08-21T12:46:48;102059.78;;;24.10;82.05
10510;BME280;5303;53.266;10.410;2023-08-21T12:49:15;102070.47;;;24.13;77.00
10510;BME280;5303;53.266;10.410;2023-08-21T12:51:41;102062.03;;;24.21;75.62
10510;BME280;5303;53.266;10.410;2023-08-21T12:54:06;102066.78;;;24.38;77.69